Rechercher aéroport 
image banner adimage banner adimage banner ad
image banner ad

52CL - Adelanto

Situé à Adelanto, United States

ICAO - 52CL, IATA -

Données fournies par Airmate  

Information générale

Coordonnées: N34°32'15" W117°27'38"
Élévation : 3075 feet MSL.
Variation magnétique : 14° East
Voir autres Aéroports à California

Données opérationnelles

Special qualification required
Heure actuelle UTC:
Heure actuelle locale:
METAR: KVCV 212345Z AUTO 35013KT 10SM CLR 33/M05 A3018 RMK DA5300
Voir NOTAMs / SUP AIP / TFR affectant cet aéroport [VIEW]
Fréquences de communication: [VIEW]

Pistes:

Identifiant RWYQFULongueur (ft)Largeur (ft)SurfaceLDA (ft)
E5100100EARTH
W5100100EARTH
N3930100EARTH
S3930100EARTH

Coordonnées de l'aéroport

Adresse: Adelanto United States

Vue satellite de 52CL